Dobrodošli na spletni strani vremenske postaje Senovo. Vse informacije so informativnega značaja, saj vremenska postaja ni del državne mreže meteoroloških postaj. AKTUALNIH OBVESTIL NI.


Sneg/Led Od: 22-02-2018 00:00 Do: 23-02-2018 23:59 Opozorilo za: Sneg/Led Stopnja: Rumena info button
Veter Od: 22-02-2018 00:00 Do: 23:59 Opozorilo za: Veter Stopnja: Rumena info button

Pogled proti Armezu več informacij Pogled proti Armezu


Lisca več informacij Lisca


Radar strel več informacij blitzortung!


opozorilo za sneg/led več informacij rain snow radar


Obiščite še:

Template documentation
and downloads

And another site



Weather Underground, zgodovina - Tekstovno

Dnevni povzetek za Februar 1, 2018 Enote:  Obe    Angleško   Metrično
« Predhodni Dan
Naslednji Dan »
Dnevni Tedenski Mesečni Letni Po meri
  Višja: Nižja: Povprečje:
Temperatura: TemperatureC °F /  -17.8 °C 2.8 °F /  -16.2 °C 7.9 °F /  -13.4 °C
Točka rosišča: DewpointC °F /  -17.8 °C 0.8 °F /  -17.3 °C 3.7 °F /  -15.7 °C
Vlažnost: Humidity % 55 % 76 %
Hitrost vetra: WindSpeedKMH mph /  0 km/h - 4.2 mph /  6.8 km/h
Sunki vetra: WindSpeedGustKMH mph /  0 km/h - -
Veter:- - WSW
Zračni tlak: PressurehPa in /  0 hPa 1001.9 in /  33924.3 hPa -
Padavine: 2.3 in /  58.42 mm    
Historical Graphs
 
 
Tabelarni podarki za Februar 1, 2018
Čas Temperatura Točka rosišča Zračni tlak Veter Hitrost vetra Sunki vetra Vlažnost Intenziteta padavin (urna)
TemperatureC °F /  -17.8 °C DewpointC °F /  -17.8 °C PressurehPa in /  0 hPa Calm     Humidity % HourlyPrecipMM in /  0 mm
00:04 6.8 °F /  -14 °C 3.9 °F /  -15.6 °C 1011.1 in /  34235.8 hPa SSW 6.8 mph /  10.9 km/h 13.7 mph /  22 km/h 82 % 0.0 in /  0 mm
00:09 6.9 °F /  -13.9 °C 4.1 °F /  -15.5 °C 1011.1 in /  34235.8 hPa SSW 5.6 mph /  9 km/h 10.1 mph /  16.3 km/h 82 % 0.0 in /  0 mm
00:14 6.9 °F /  -13.9 °C 4.1 °F /  -15.5 °C 1010.0 in /  34198.6 hPa SSW 6.0 mph /  9.7 km/h 10.1 mph /  16.3 km/h 82 % 0.0 in /  0 mm
00:19 7.0 °F /  -13.9 °C 3.9 °F /  -15.6 °C 1010.0 in /  34198.6 hPa SSW 6.0 mph /  9.7 km/h 12.6 mph /  20.3 km/h 81 % 0.0 in /  0 mm
00:24 6.9 °F /  -13.9 °C 4.1 °F /  -15.5 °C 1010.0 in /  34198.6 hPa SSW 5.5 mph /  8.9 km/h 12.6 mph /  20.3 km/h 82 % 0.0 in /  0 mm
00:29 6.8 °F /  -14 °C 3.9 °F /  -15.6 °C 1010.0 in /  34198.6 hPa SSW 5.0 mph /  8 km/h 9.3 mph /  15 km/h 82 % 0.0 in /  0 mm
00:34 6.9 °F /  -13.9 °C 4.1 °F /  -15.5 °C 1010.0 in /  34198.6 hPa SSW 3.9 mph /  6.3 km/h 7.9 mph /  12.7 km/h 82 % 0.0 in /  0 mm
00:39 6.9 °F /  -13.9 °C 4.1 °F /  -15.5 °C 1010.0 in /  34198.6 hPa South 2.4 mph /  3.9 km/h 5.0 mph /  8 km/h 82 % 0.0 in /  0 mm
00:44 6.9 °F /  -13.9 °C 4.1 °F /  -15.5 °C 1010.0 in /  34198.6 hPa SSW 2.7 mph /  4.3 km/h 6.9 mph /  11.1 km/h 82 % 0.0 in /  0 mm
00:49 6.8 °F /  -14 °C 3.9 °F /  -15.6 °C 1010.0 in /  34198.6 hPa SSW 3.9 mph /  6.3 km/h 8.7 mph /  14 km/h 82 % 0.0 in /  0 mm
00:54 6.8 °F /  -14 °C 3.9 °F /  -15.6 °C 1010.0 in /  34198.6 hPa South 4.2 mph /  6.8 km/h 8.7 mph /  14 km/h 82 % 0.0 in /  0 mm
00:59 6.8 °F /  -14 °C 3.9 °F /  -15.6 °C 1009.0 in /  34164.7 hPa SSE 3.9 mph /  6.3 km/h 6.1 mph /  9.8 km/h 82 % 0.0 in /  0 mm
01:04 6.8 °F /  -14 °C 3.9 °F /  -15.6 °C 1009.0 in /  34164.7 hPa South 2.9 mph /  4.7 km/h 9.0 mph /  14.5 km/h 82 % 0.0 in /  0 mm
01:09 6.8 °F /  -14 °C 3.9 °F /  -15.6 °C 1009.0 in /  34164.7 hPa South 4.0 mph /  6.4 km/h 9.0 mph /  14.5 km/h 82 % 0.0 in /  0 mm
01:14 6.8 °F /  -14 °C 3.9 °F /  -15.6 °C 1009.0 in /  34164.7 hPa South 5.6 mph /  9 km/h 10.1 mph /  16.3 km/h 82 % 0.0 in /  0 mm
01:19 6.7 °F /  -14.1 °C 3.8 °F /  -15.7 °C 1009.0 in /  34164.7 hPa South 4.0 mph /  6.4 km/h 10.1 mph /  16.3 km/h 82 % 0.0 in /  0 mm
01:24 6.7 °F /  -14.1 °C 3.8 °F /  -15.7 °C 1009.0 in /  34164.7 hPa South 3.1 mph /  5 km/h 6.9 mph /  11.1 km/h 82 % 0.0 in /  0 mm
01:29 6.8 °F /  -14 °C 3.9 °F /  -15.6 °C 1009.0 in /  34164.7 hPa South 2.9 mph /  4.7 km/h 6.9 mph /  11.1 km/h 82 % 0.0 in /  0 mm
01:34 6.8 °F /  -14 °C 3.9 °F /  -15.6 °C 1009.0 in /  34164.7 hPa South 4.2 mph /  6.8 km/h 10.1 mph /  16.3 km/h 82 % 0.0 in /  0 mm
01:39 6.8 °F /  -14 °C 3.9 °F /  -15.6 °C 1009.0 in /  34164.7 hPa South 5.3 mph /  8.5 km/h 10.1 mph /  16.3 km/h 82 % 0.0 in /  0 mm
01:44 6.8 °F /  -14 °C 3.9 °F /  -15.6 °C 1010.0 in /  34198.6 hPa South 4.0 mph /  6.4 km/h 7.6 mph /  12.2 km/h 82 % 0.0 in /  0 mm
01:49 6.9 °F /  -13.9 °C 4.1 °F /  -15.5 °C 1010.0 in /  34198.6 hPa SSW 4.2 mph /  6.8 km/h 9.7 mph /  15.6 km/h 82 % 0.0 in /  0 mm
01:54 6.8 °F /  -14 °C 3.9 °F /  -15.6 °C 1010.0 in /  34198.6 hPa SSW 4.5 mph /  7.2 km/h 9.7 mph /  15.6 km/h 82 % 0.0 in /  0 mm
01:59 6.8 °F /  -14 °C 3.9 °F /  -15.6 °C 1009.0 in /  34164.7 hPa SSW 3.7 mph /  6 km/h 6.4 mph /  10.3 km/h 82 % 0.0 in /  0 mm
02:04 6.7 °F /  -14.1 °C 3.8 °F /  -15.7 °C 1009.0 in /  34164.7 hPa South 2.7 mph /  4.3 km/h 6.4 mph /  10.3 km/h 82 % 0.0 in /  0 mm
02:09 6.5 °F /  -14.2 °C 3.7 °F /  -15.7 °C 1009.0 in /  34164.7 hPa SSE 3.1 mph /  5 km/h 6.4 mph /  10.3 km/h 82 % 0.0 in /  0 mm
02:14 6.4 °F /  -14.2 °C 3.6 °F /  -15.8 °C 1009.0 in /  34164.7 hPa SSE 4.0 mph /  6.4 km/h 6.4 mph /  10.3 km/h 82 % 0.0 in /  0 mm
02:19 6.4 °F /  -14.2 °C 3.6 °F /  -15.8 °C 1009.0 in /  34164.7 hPa South 3.9 mph /  6.3 km/h 6.4 mph /  10.3 km/h 82 % 0.0 in /  0 mm
02:24 6.3 °F /  -14.3 °C 3.4 °F /  -15.9 °C 1009.0 in /  34164.7 hPa South 3.7 mph /  6 km/h 6.1 mph /  9.8 km/h 82 % 0.0 in /  0 mm
02:29 6.3 °F /  -14.3 °C 3.4 °F /  -15.9 °C 1008.0 in /  34130.9 hPa South 3.1 mph /  5 km/h 6.4 mph /  10.3 km/h 82 % 0.0 in /  0 mm
02:34 6.3 °F /  -14.3 °C 3.4 °F /  -15.9 °C 1008.0 in /  34130.9 hPa South 3.1 mph /  5 km/h 6.4 mph /  10.3 km/h 82 % 0.0 in /  0 mm
02:39 6.3 °F /  -14.3 °C 3.4 °F /  -15.9 °C 1008.0 in /  34130.9 hPa South 3.1 mph /  5 km/h 5.5 mph /  8.9 km/h 82 % 0.0 in /  0 mm
02:44 6.3 °F /  -14.3 °C 3.4 °F /  -15.9 °C 1008.0 in /  34130.9 hPa South 2.9 mph /  4.7 km/h 5.0 mph /  8 km/h 82 % 0.0 in /  0 mm
02:49 6.3 °F /  -14.3 °C 3.6 °F /  -15.8 °C 1008.0 in /  34130.9 hPa SSW 2.7 mph /  4.3 km/h 5.0 mph /  8 km/h 83 % 0.0 in /  0 mm
02:54 6.2 °F /  -14.3 °C 3.5 °F /  -15.8 °C 1008.0 in /  34130.9 hPa SSE 1.0 mph /  1.6 km/h 5.0 mph /  8 km/h 83 % 0.0 in /  0 mm
02:59 6.1 °F /  -14.4 °C 3.4 °F /  -15.9 °C 1008.0 in /  34130.9 hPa SSW 1.3 mph /  2.1 km/h 5.5 mph /  8.9 km/h 83 % 0.0 in /  0 mm
03:04 6.1 °F /  -14.4 °C 3.4 °F /  -15.9 °C 1008.0 in /  34130.9 hPa SSW 1.3 mph /  2.1 km/h 5.5 mph /  8.9 km/h 83 % 0.0 in /  0 mm
03:09 6.0 °F /  -14.4 °C 3.3 °F /  -15.9 °C 1008.0 in /  34130.9 hPa SW 1.0 mph /  1.6 km/h 3.5 mph /  5.6 km/h 83 % 0.0 in /  0 mm
03:14 5.9 °F /  -14.5 °C 3.2 °F /  -16 °C 1007.0 in /  34097 hPa WSW 2.1 mph /  3.4 km/h 5.5 mph /  8.9 km/h 83 % 0.0 in /  0 mm
03:19 5.7 °F /  -14.6 °C 3.1 °F /  -16.1 °C 1007.0 in /  34097 hPa WNW 3.2 mph /  5.1 km/h 5.8 mph /  9.3 km/h 83 % 0.0 in /  0 mm
03:24 5.6 °F /  -14.7 °C 2.9 °F /  -16.2 °C 1007.0 in /  34097 hPa WNW 2.9 mph /  4.7 km/h 5.8 mph /  9.3 km/h 83 % 0.0 in /  0 mm
03:29 5.4 °F /  -14.8 °C 2.7 °F /  -16.3 °C 1008.0 in /  34130.9 hPa West 1.0 mph /  1.6 km/h 3.2 mph /  5.1 km/h 83 % 0.0 in /  0 mm
03:34 5.3 °F /  -14.8 °C 2.7 °F /  -16.3 °C 1008.0 in /  34130.9 hPa WSW 0.3 mph /  0.5 km/h 2.1 mph /  3.4 km/h 83 % 0.0 in /  0 mm
03:39 5.3 °F /  -14.8 °C 2.7 °F /  -16.3 °C 1008.0 in /  34130.9 hPa SSW 0.3 mph /  0.5 km/h 2.1 mph /  3.4 km/h 83 % 0.0 in /  0 mm
03:44 5.2 °F /  -14.9 °C 2.6 °F /  -16.3 °C 1006.0 in /  34063.2 hPa Calm     83 % 0.0 in /  0 mm
03:49 5.2 °F /  -14.9 °C 2.7 °F /  -16.3 °C 1006.0 in /  34063.2 hPa Calm   5.8 mph /  9.3 km/h 84 % 0.0 in /  0 mm
03:54 5.2 °F /  -14.9 °C 2.7 °F /  -16.3 °C 1006.0 in /  34063.2 hPa SE 2.3 mph /  3.7 km/h 11.6 mph /  18.7 km/h 84 % 0.0 in /  0 mm
03:59 5.4 °F /  -14.8 °C 2.9 °F /  -16.2 °C 1006.0 in /  34063.2 hPa SE 5.1 mph /  8.2 km/h 11.6 mph /  18.7 km/h 84 % 0.0 in /  0 mm
04:04 5.5 °F /  -14.7 °C 3.0 °F /  -16.1 °C 1006.0 in /  34063.2 hPa SE 3.2 mph /  5.1 km/h 9.0 mph /  14.5 km/h 84 % 0.0 in /  0 mm
04:09 5.5 °F /  -14.7 °C 3.2 °F /  -16 °C 1006.0 in /  34063.2 hPa SW 1.3 mph /  2.1 km/h 5.0 mph /  8 km/h 85 % 0.0 in /  0 mm
04:14 5.6 °F /  -14.7 °C 3.3 °F /  -15.9 °C 1007.0 in /  34097 hPa West 1.8 mph /  2.9 km/h 5.0 mph /  8 km/h 85 % 0.0 in /  0 mm
04:19 5.4 °F /  -14.8 °C 3.1 °F /  -16.1 °C 1007.0 in /  34097 hPa SW 1.9 mph /  3.1 km/h 4.3 mph /  6.9 km/h 85 % 0.0 in /  0 mm
04:24 5.4 °F /  -14.8 °C 3.1 °F /  -16.1 °C 1007.0 in /  34097 hPa SSE 0.8 mph /  1.3 km/h 4.3 mph /  6.9 km/h 85 % 0.0 in /  0 mm
04:29 5.3 °F /  -14.8 °C 3.0 °F /  -16.1 °C 1007.0 in /  34097 hPa SSW 1.3 mph /  2.1 km/h 5.5 mph /  8.9 km/h 85 % 0.0 in /  0 mm
04:34 5.3 °F /  -14.8 °C 3.0 °F /  -16.1 °C 1007.0 in /  34097 hPa SSW 3.4 mph /  5.5 km/h 5.5 mph /  8.9 km/h 85 % 0.0 in /  0 mm
04:39 5.0 °F /  -15 °C 2.7 °F /  -16.3 °C 1007.0 in /  34097 hPa South 3.9 mph /  6.3 km/h 7.6 mph /  12.2 km/h 85 % 0.0 in /  0 mm
04:44 4.8 °F /  -15.1 °C 2.5 °F /  -16.4 °C 1007.0 in /  34097 hPa WSW 3.1 mph /  5 km/h 7.6 mph /  12.2 km/h 85 % 0.0 in /  0 mm
04:49 4.6 °F /  -15.2 °C 2.3 °F /  -16.5 °C 1007.0 in /  34097 hPa NW 3.2 mph /  5.1 km/h 5.5 mph /  8.9 km/h 85 % 0.0 in /  0 mm
04:54 4.4 °F /  -15.3 °C 2.1 °F /  -16.6 °C 1007.0 in /  34097 hPa NW 3.4 mph /  5.5 km/h 5.0 mph /  8 km/h 85 % 0.0 in /  0 mm
04:59 4.4 °F /  -15.3 °C 2.1 °F /  -16.6 °C 1006.0 in /  34063.2 hPa NW 2.9 mph /  4.7 km/h 4.7 mph /  7.6 km/h 85 % 0.0 in /  0 mm
05:04 4.3 °F /  -15.4 °C 2.0 °F /  -16.7 °C 1006.0 in /  34063.2 hPa WNW 1.6 mph /  2.6 km/h 4.7 mph /  7.6 km/h 85 % 0.0 in /  0 mm
05:09 4.1 °F /  -15.5 °C 1.8 °F /  -16.8 °C 1006.0 in /  34063.2 hPa NNW 0.5 mph /  0.8 km/h 3.2 mph /  5.1 km/h 85 % 0.0 in /  0 mm
05:14 4.0 °F /  -15.6 °C 1.7 °F /  -16.8 °C 1006.0 in /  34063.2 hPa SSE 2.6 mph /  4.2 km/h 6.9 mph /  11.1 km/h 85 % 0.0 in /  0 mm
05:19 4.0 °F /  -15.6 °C 1.7 °F /  -16.8 °C 1006.0 in /  34063.2 hPa South 3.7 mph /  6 km/h 6.9 mph /  11.1 km/h 85 % 0.0 in /  0 mm
05:24 4.0 °F /  -15.6 °C 1.7 °F /  -16.8 °C 1006.0 in /  34063.2 hPa WNW 2.7 mph /  4.3 km/h 6.1 mph /  9.8 km/h 85 % 0.0 in /  0 mm
05:29 3.8 °F /  -15.7 °C 1.7 °F /  -16.8 °C 1006.0 in /  34063.2 hPa NNW 1.8 mph /  2.9 km/h 4.3 mph /  6.9 km/h 86 % 0.0 in /  0 mm
05:34 3.8 °F /  -15.7 °C 1.7 °F /  -16.8 °C 1006.0 in /  34063.2 hPa NNW 1.3 mph /  2.1 km/h 5.5 mph /  8.9 km/h 86 % 0.0 in /  0 mm
05:39 3.7 °F /  -15.7 °C 1.6 °F /  -16.9 °C 1006.0 in /  34063.2 hPa NW 2.4 mph /  3.9 km/h 6.1 mph /  9.8 km/h 86 % 0.0 in /  0 mm
05:44 3.6 °F /  -15.8 °C 1.5 °F /  -16.9 °C 1005.0 in /  34029.3 hPa NW 2.6 mph /  4.2 km/h 6.1 mph /  9.8 km/h 86 % 0.0 in /  0 mm
05:49 3.6 °F /  -15.8 °C 1.5 °F /  -16.9 °C 1005.0 in /  34029.3 hPa WNW 0.8 mph /  1.3 km/h 4.3 mph /  6.9 km/h 86 % 0.0 in /  0 mm
05:54 3.4 °F /  -15.9 °C 1.3 °F /  -17.1 °C 1005.0 in /  34029.3 hPa NNW 0.6 mph /  1 km/h 4.0 mph /  6.4 km/h 86 % 0.0 in /  0 mm
05:59 3.4 °F /  -15.9 °C 1.3 °F /  -17.1 °C 1005.0 in /  34029.3 hPa NNW 0.8 mph /  1.3 km/h 4.0 mph /  6.4 km/h 86 % 0.0 in /  0 mm
06:04 3.2 °F /  -16 °C 1.1 °F /  -17.2 °C 1005.0 in /  34029.3 hPa NNW 0.6 mph /  1 km/h 4.0 mph /  6.4 km/h 86 % 0.0 in /  0 mm
06:09 3.1 °F /  -16.1 °C 1.0 °F /  -17.2 °C 1005.0 in /  34029.3 hPa NW 0.2 mph /  0.3 km/h 4.0 mph /  6.4 km/h 86 % 0.0 in /  0 mm
06:14 3.0 °F /  -16.1 °C 0.9 °F /  -17.3 °C 1005.0 in /  34029.3 hPa Calm     86 % 0.0 in /  0 mm
06:19 2.9 °F /  -16.2 °C 0.9 °F /  -17.3 °C 1005.0 in /  34029.3 hPa WNW 0.2 mph /  0.3 km/h 3.2 mph /  5.1 km/h 87 % 0.0 in /  0 mm
06:24 2.8 °F /  -16.2 °C 0.8 °F /  -17.3 °C 1005.0 in /  34029.3 hPa West 1.3 mph /  2.1 km/h 4.3 mph /  6.9 km/h 87 % 0.0 in /  0 mm
06:29 2.8 °F /  -16.2 °C 0.8 °F /  -17.3 °C 1005.0 in /  34029.3 hPa WNW 1.8 mph /  2.9 km/h 6.1 mph /  9.8 km/h 87 % 0.0 in /  0 mm
06:34 2.9 °F /  -16.2 °C 0.9 °F /  -17.3 °C 1005.0 in /  34029.3 hPa NW 1.4 mph /  2.3 km/h 6.1 mph /  9.8 km/h 87 % 0.0 in /  0 mm
06:39 2.8 °F /  -16.2 °C 0.8 °F /  -17.3 °C 1005.0 in /  34029.3 hPa WNW 1.0 mph /  1.6 km/h 3.2 mph /  5.1 km/h 87 % 0.0 in /  0 mm
06:44 2.8 °F /  -16.2 °C 0.8 °F /  -17.3 °C 1005.0 in /  34029.3 hPa WNW 0.5 mph /  0.8 km/h 3.5 mph /  5.6 km/h 87 % 0.0 in /  0 mm
06:49 2.8 °F /  -16.2 °C 1.0 °F /  -17.2 °C 1005.0 in /  34029.3 hPa WNW 0.3 mph /  0.5 km/h 3.5 mph /  5.6 km/h 88 % 0.0 in /  0 mm
06:54 3.0 °F /  -16.1 °C 1.1 °F /  -17.2 °C 1005.0 in /  34029.3 hPa WNW 0.2 mph /  0.3 km/h 2.1 mph /  3.4 km/h 87 % 0.0 in /  0 mm
06:59 3.0 °F /  -16.1 °C 1.2 °F /  -17.1 °C 1005.0 in /  34029.3 hPa Calm     88 % 0.0 in /  0 mm
07:04 3.1 °F /  -16.1 °C 1.3 °F /  -17.1 °C 1005.0 in /  34029.3 hPa NW 1.1 mph /  1.8 km/h 5.0 mph /  8 km/h 88 % 0.0 in /  0 mm
07:09 3.3 °F /  -15.9 °C 1.5 °F /  -16.9 °C 1005.0 in /  34029.3 hPa NW 2.6 mph /  4.2 km/h 5.8 mph /  9.3 km/h 88 % 0.0 in /  0 mm
07:14 3.3 °F /  -15.9 °C 1.5 °F /  -16.9 °C 1005.0 in /  34029.3 hPa NW 1.3 mph /  2.1 km/h 5.8 mph /  9.3 km/h 88 % 0.0 in /  0 mm
07:19 3.3 °F /  -15.9 °C 1.5 °F /  -16.9 °C 1005.0 in /  34029.3 hPa NNW 0.2 mph /  0.3 km/h 4.0 mph /  6.4 km/h 88 % 0.0 in /  0 mm
07:24 3.4 °F /  -15.9 °C 1.6 °F /  -16.9 °C 1005.0 in /  34029.3 hPa NNW 1.1 mph /  1.8 km/h 4.7 mph /  7.6 km/h 88 % 0.0 in /  0 mm
07:29 3.7 °F /  -15.7 °C 2.1 °F /  -16.6 °C 1005.0 in /  34029.3 hPa NW 1.6 mph /  2.6 km/h 4.7 mph /  7.6 km/h 89 % 0.0 in /  0 mm
07:34 3.7 °F /  -15.7 °C 2.1 °F /  -16.6 °C 1005.0 in /  34029.3 hPa NW 0.6 mph /  1 km/h 4.0 mph /  6.4 km/h 89 % 0.0 in /  0 mm
07:39 3.9 °F /  -15.6 °C 2.3 °F /  -16.5 °C 1005.0 in /  34029.3 hPa Calm     89 % 0.0 in /  0 mm
07:44 4.1 °F /  -15.5 °C 2.4 °F /  -16.4 °C 1003.9 in /  33992.1 hPa Calm     89 % 0.0 in /  0 mm
07:49 4.2 °F /  -15.4 °C 2.6 °F /  -16.3 °C 1003.9 in /  33992.1 hPa Calm     89 % 0.0 in /  0 mm
07:54 4.3 °F /  -15.4 °C 2.8 °F /  -16.2 °C 1003.9 in /  33992.1 hPa Calm     90 % 0.0 in /  0 mm
07:59 4.3 °F /  -15.4 °C 2.8 °F /  -16.2 °C 1003.9 in /  33992.1 hPa Calm     90 % 0.0 in /  0 mm
08:05 4.4 °F /  -15.3 °C 2.9 °F /  -16.2 °C 1003.9 in /  33992.1 hPa Calm     90 % 0.0 in /  0 mm
08:10 4.6 °F /  -15.2 °C 3.1 °F /  -16.1 °C 1005.0 in /  34029.3 hPa Calm     90 % 0.0 in /  0 mm
08:15 4.7 °F /  -15.2 °C 3.3 °F /  -15.9 °C 1005.0 in /  34029.3 hPa Calm     91 % 0.0 in /  0 mm
08:20 4.9 °F /  -15.1 °C 3.6 °F /  -15.8 °C 1005.0 in /  34029.3 hPa Calm     91 % 0.0 in /  0 mm
08:25 5.0 °F /  -15 °C 3.7 °F /  -15.7 °C 1005.0 in /  34029.3 hPa Calm     91 % 0.0 in /  0 mm
08:30 5.3 °F /  -14.8 °C 3.9 °F /  -15.6 °C 1005.0 in /  34029.3 hPa WNW 0.6 mph /  1 km/h 4.7 mph /  7.6 km/h 91 % 0.0 in /  0 mm
08:35 5.7 °F /  -14.6 °C 4.5 °F /  -15.3 °C 1005.0 in /  34029.3 hPa NW 1.1 mph /  1.8 km/h 5.0 mph /  8 km/h 92 % 0.0 in /  0 mm
08:40 6.2 °F /  -14.3 °C 5.0 °F /  -15 °C 1005.0 in /  34029.3 hPa NNW 1.0 mph /  1.6 km/h 5.0 mph /  8 km/h 92 % 0.0 in /  0 mm
08:45 6.8 °F /  -14 °C 5.6 °F /  -14.7 °C 1005.0 in /  34029.3 hPa NW 1.6 mph /  2.6 km/h 5.8 mph /  9.3 km/h 92 % 0.0 in /  0 mm
08:50 7.5 °F /  -13.6 °C 6.3 °F /  -14.3 °C 1005.0 in /  34029.3 hPa WNW 3.1 mph /  5 km/h 7.9 mph /  12.7 km/h 92 % 0.0 in /  0 mm
08:55 7.9 °F /  -13.4 °C 6.8 °F /  -14 °C 1003.9 in /  33992.1 hPa West 2.9 mph /  4.7 km/h 7.9 mph /  12.7 km/h 93 % 0.0 in /  0 mm
09:00 8.2 °F /  -13.2 °C 7.0 °F /  -13.9 °C 1003.9 in /  33992.1 hPa WNW 2.1 mph /  3.4 km/h 5.8 mph /  9.3 km/h 92 % 0.0 in /  0 mm
09:05 8.5 °F /  -13.1 °C 7.4 °F /  -13.7 °C 1003.9 in /  33992.1 hPa West 2.4 mph /  3.9 km/h 6.4 mph /  10.3 km/h 93 % 0.0 in /  0 mm
09:10 8.7 °F /  -12.9 °C 7.6 °F /  -13.6 °C 1003.9 in /  33992.1 hPa West 2.4 mph /  3.9 km/h 6.4 mph /  10.3 km/h 93 % 0.0 in /  0 mm
09:15 8.9 °F /  -12.8 °C 7.8 °F /  -13.4 °C 1003.9 in /  33992.1 hPa WSW 3.5 mph /  5.6 km/h 10.1 mph /  16.3 km/h 93 % 0.0 in /  0 mm
09:20 9.1 °F /  -12.7 °C 8.0 °F /  -13.3 °C 1003.9 in /  33992.1 hPa WSW 5.5 mph /  8.9 km/h 10.1 mph /  16.3 km/h 93 % 0.0 in /  0 mm
09:25 9.2 °F /  -12.7 °C 8.1 °F /  -13.3 °C 1003.9 in /  33992.1 hPa SW 5.1 mph /  8.2 km/h 9.7 mph /  15.6 km/h 93 % 0.0 in /  0 mm
09:30 9.3 °F /  -12.6 °C 8.2 °F /  -13.2 °C 1003.9 in /  33992.1 hPa SW 4.8 mph /  7.7 km/h 11.6 mph /  18.7 km/h 93 % 0.0 in /  0 mm
09:35 9.4 °F /  -12.6 °C 8.2 °F /  -13.2 °C 1003.9 in /  33992.1 hPa SW 6.4 mph /  10.3 km/h 12.6 mph /  20.3 km/h 92 % 0.0 in /  0 mm
09:41 9.5 °F /  -12.5 °C 8.3 °F /  -13.2 °C 1005.0 in /  34029.3 hPa SW 7.9 mph /  12.7 km/h 12.6 mph /  20.3 km/h 92 % 0.0 in /  0 mm
09:46 9.5 °F /  -12.5 °C 8.3 °F /  -13.2 °C 1005.0 in /  34029.3 hPa SW 7.1 mph /  11.4 km/h 11.9 mph /  19.2 km/h 92 % 0.0 in /  0 mm
09:51 9.6 °F /  -12.4 °C 8.2 °F /  -13.2 °C 1005.0 in /  34029.3 hPa SW 6.6 mph /  10.6 km/h 11.9 mph /  19.2 km/h 91 % 0.0 in /  0 mm
09:56 9.7 °F /  -12.4 °C 8.3 °F /  -13.2 °C 1005.0 in /  34029.3 hPa SW 7.1 mph /  11.4 km/h 12.6 mph /  20.3 km/h 91 % 0.0 in /  0 mm
10:01 9.8 °F /  -12.3 °C 8.2 °F /  -13.2 °C 1005.0 in /  34029.3 hPa SW 8.0 mph /  12.9 km/h 15.8 mph /  25.4 km/h 90 % 0.0 in /  0 mm
10:06 9.8 °F /  -12.3 °C 8.1 °F /  -13.3 °C 1005.0 in /  34029.3 hPa SW 9.0 mph /  14.5 km/h 16.6 mph /  26.7 km/h 89 % 0.0 in /  0 mm
10:11 9.8 °F /  -12.3 °C 7.9 °F /  -13.4 °C 1006.0 in /  34063.2 hPa SW 9.3 mph /  15 km/h 16.9 mph /  27.2 km/h 88 % 0.0 in /  0 mm
10:16 9.9 °F /  -12.3 °C 8.0 °F /  -13.3 °C 1006.0 in /  34063.2 hPa SW 8.2 mph /  13.2 km/h 16.9 mph /  27.2 km/h 88 % 0.0 in /  0 mm
10:21 9.9 °F /  -12.3 °C 7.7 °F /  -13.5 °C 1006.0 in /  34063.2 hPa SW 6.6 mph /  10.6 km/h 14.0 mph /  22.5 km/h 86 % 0.0 in /  0 mm
10:26 10.0 °F /  -12.2 °C 7.6 °F /  -13.6 °C 1003.9 in /  33992.1 hPa SW 7.7 mph /  12.4 km/h 21.6 mph /  34.8 km/h 85 % 0.0 in /  0 mm
10:31 10.0 °F /  -12.2 °C 7.4 °F /  -13.7 °C 1003.9 in /  33992.1 hPa SW 8.4 mph /  13.5 km/h 21.6 mph /  34.8 km/h 84 % 0.0 in /  0 mm
10:36 10.0 °F /  -12.2 °C 7.4 °F /  -13.7 °C 1003.9 in /  33992.1 hPa SW 7.2 mph /  11.6 km/h 12.6 mph /  20.3 km/h 84 % 0.0 in /  0 mm
10:41 10.0 °F /  -12.2 °C 7.2 °F /  -13.8 °C 1005.0 in /  34029.3 hPa SW 7.7 mph /  12.4 km/h 19.5 mph /  31.4 km/h 83 % 0.0 in /  0 mm
10:46 10.0 °F /  -12.2 °C 7.1 °F /  -13.8 °C 1005.0 in /  34029.3 hPa SW 8.5 mph /  13.7 km/h 19.5 mph /  31.4 km/h 82 % 0.0 in /  0 mm
10:51 10.1 °F /  -12.2 °C 7.2 °F /  -13.8 °C 1005.0 in /  34029.3 hPa WSW 8.4 mph /  13.5 km/h 16.6 mph /  26.7 km/h 82 % 0.0 in /  0 mm
10:56 10.0 °F /  -12.2 °C 6.9 °F /  -13.9 °C 1003.9 in /  33992.1 hPa SW 7.6 mph /  12.2 km/h 16.6 mph /  26.7 km/h 81 % 0.0 in /  0 mm
11:02 10.0 °F /  -12.2 °C 6.9 °F /  -13.9 °C 1003.9 in /  33992.1 hPa SW 6.8 mph /  10.9 km/h 13.0 mph /  20.9 km/h 81 % 0.0 in /  0 mm
11:07 10.1 °F /  -12.2 °C 6.8 °F /  -14 °C 1003.9 in /  33992.1 hPa SW 8.0 mph /  12.9 km/h 14.8 mph /  23.8 km/h 80 % 0.0 in /  0 mm
11:12 10.2 °F /  -12.1 °C 6.9 °F /  -13.9 °C 1003.9 in /  33992.1 hPa SW 8.7 mph /  14 km/h 17.2 mph /  27.7 km/h 80 % 0.0 in /  0 mm
11:17 10.3 °F /  -12.1 °C 6.8 °F /  -14 °C 1003.9 in /  33992.1 hPa SW 7.7 mph /  12.4 km/h 17.2 mph /  27.7 km/h 79 % 0.0 in /  0 mm
11:22 10.3 °F /  -12.1 °C 6.8 °F /  -14 °C 1003.9 in /  33992.1 hPa SW 7.7 mph /  12.4 km/h 14.0 mph /  22.5 km/h 79 % 0.0 in /  0 mm
11:27 10.3 °F /  -12.1 °C 6.6 °F /  -14.1 °C 1005.0 in /  34029.3 hPa SW 8.7 mph /  14 km/h 14.8 mph /  23.8 km/h 78 % 0.0 in /  0 mm
11:32 10.4 °F /  -12 °C 6.7 °F /  -14.1 °C 1005.0 in /  34029.3 hPa SW 8.7 mph /  14 km/h 15.8 mph /  25.4 km/h 78 % 0.0 in /  0 mm
11:37 10.5 °F /  -11.9 °C 6.6 °F /  -14.1 °C 1005.0 in /  34029.3 hPa SW 7.2 mph /  11.6 km/h 15.8 mph /  25.4 km/h 77 % 0.0 in /  0 mm
11:42 10.7 °F /  -11.8 °C 6.8 °F /  -14 °C 1005.0 in /  34029.3 hPa SSW 8.0 mph /  12.9 km/h 16.9 mph /  27.2 km/h 77 % 0.0 in /  0 mm
11:47 11.2 °F /  -11.6 °C 7.1 °F /  -13.8 °C 1005.0 in /  34029.3 hPa SSW 10.0 mph /  16.1 km/h 20.1 mph /  32.3 km/h 76 % 0.0 in /  0 mm
11:52 11.7 °F /  -11.3 °C 7.4 °F /  -13.7 °C 1005.0 in /  34029.3 hPa SSW 12.2 mph /  19.6 km/h 20.1 mph /  32.3 km/h 75 % 0.0 in /  0 mm
11:57 12.1 °F /  -11.1 °C 7.6 °F /  -13.6 °C 1005.0 in /  34029.3 hPa SSW 13.8 mph /  22.2 km/h 29.1 mph /  46.8 km/h 74 % 0.0 in /  0 mm
12:02 12.0 °F /  -11.1 °C 7.3 °F /  -13.7 °C 1005.0 in /  34029.3 hPa SW 14.3 mph /  23 km/h 29.1 mph /  46.8 km/h 73 % 0.0 in /  0 mm
12:07 11.9 °F /  -11.2 °C 7.0 °F /  -13.9 °C 1005.0 in /  34029.3 hPa SW 11.7 mph /  18.8 km/h 23.3 mph /  37.5 km/h 72 % 0.0 in /  0 mm
12:12 11.8 °F /  -11.2 °C 6.7 °F /  -14.1 °C 1005.0 in /  34029.3 hPa SW 9.8 mph /  15.8 km/h 20.6 mph /  33.2 km/h 71 % 0.0 in /  0 mm
12:17 11.7 °F /  -11.3 °C 6.4 °F /  -14.2 °C 1005.0 in /  34029.3 hPa SW 10.3 mph /  16.6 km/h 20.6 mph /  33.2 km/h 70 % 0.0 in /  0 mm
12:22 11.5 °F /  -11.4 °C 6.0 °F /  -14.4 °C 1005.0 in /  34029.3 hPa SW 11.3 mph /  18.2 km/h 19.8 mph /  31.9 km/h 69 % 0.0 in /  0 mm
12:27 11.4 °F /  -11.4 °C 5.7 °F /  -14.6 °C 1003.9 in /  33992.1 hPa SW 10.5 mph /  16.9 km/h 19.8 mph /  31.9 km/h 68 % 0.0 in /  0 mm
12:32 11.3 °F /  -11.5 °C 5.6 °F /  -14.7 °C 1003.9 in /  33992.1 hPa SW 8.7 mph /  14 km/h 14.0 mph /  22.5 km/h 68 % 0.0 in /  0 mm
12:37 11.3 °F /  -11.5 °C 5.4 °F /  -14.8 °C 1003.9 in /  33992.1 hPa WSW 7.9 mph /  12.7 km/h 14.0 mph /  22.5 km/h 67 % 0.0 in /  0 mm
12:42 11.2 °F /  -11.6 °C 5.3 °F /  -14.8 °C 1003.9 in /  33992.1 hPa WSW 6.4 mph /  10.3 km/h 12.2 mph /  19.6 km/h 67 % 0.0 in /  0 mm
12:44 11.2 °F /  -11.6 °C 5.3 °F /  -14.8 °C 1003.9 in /  33992.1 hPa SW 6.0 mph /  9.7 km/h 12.2 mph /  19.6 km/h 67 % 0.0 in /  0 mm
12:49 11.1 °F /  -11.6 °C 5.2 °F /  -14.9 °C 1003.9 in /  33992.1 hPa SW 8.4 mph /  13.5 km/h 24.5 mph /  39.4 km/h 67 % 0.0 in /  0 mm
12:54 11.1 °F /  -11.6 °C 5.0 °F /  -15 °C 1003.9 in /  33992.1 hPa SW 12.1 mph /  19.5 km/h 24.5 mph /  39.4 km/h 66 % 0.0 in /  0 mm
12:59 11.1 °F /  -11.6 °C 5.0 °F /  -15 °C 1003.9 in /  33992.1 hPa WSW 12.2 mph /  19.6 km/h 20.9 mph /  33.6 km/h 66 % 0.0 in /  0 mm
13:04 11.1 °F /  -11.6 °C 5.0 °F /  -15 °C 1003.9 in /  33992.1 hPa SW 10.9 mph /  17.5 km/h 25.6 mph /  41.2 km/h 66 % 0.0 in /  0 mm
13:09 11.2 °F /  -11.6 °C 5.1 °F /  -14.9 °C 1003.9 in /  33992.1 hPa SW 11.4 mph /  18.3 km/h 25.6 mph /  41.2 km/h 66 % 0.0 in /  0 mm
13:14 11.3 °F /  -11.5 °C 5.2 °F /  -14.9 °C 1003.9 in /  33992.1 hPa WSW 13.0 mph /  20.9 km/h 20.1 mph /  32.3 km/h 66 % 0.0 in /  0 mm
13:19 11.3 °F /  -11.5 °C 5.2 °F /  -14.9 °C 1003.9 in /  33992.1 hPa WSW 14.2 mph /  22.9 km/h 24.5 mph /  39.4 km/h 66 % 0.0 in /  0 mm
13:24 11.3 °F /  -11.5 °C 5.2 °F /  -14.9 °C 1003.9 in /  33992.1 hPa SW 11.1 mph /  17.9 km/h 24.5 mph /  39.4 km/h 66 % 0.0 in /  0 mm
13:29 11.2 °F /  -11.6 °C 5.1 °F /  -14.9 °C 1002.9 in /  33958.2 hPa SW 7.1 mph /  11.4 km/h 20.1 mph /  32.3 km/h 66 % 0.0 in /  0 mm
13:35 11.2 °F /  -11.6 °C 4.8 °F /  -15.1 °C 1002.9 in /  33958.2 hPa WSW 10.5 mph /  16.9 km/h 26.2 mph /  42.2 km/h 65 % 0.0 in /  0 mm
13:40 11.1 °F /  -11.6 °C 4.8 °F /  -15.1 °C 1002.9 in /  33958.2 hPa WSW 10.5 mph /  16.9 km/h 26.2 mph /  42.2 km/h 65 % 0.0 in /  0 mm
13:45 11.1 °F /  -11.6 °C 4.8 °F /  -15.1 °C 1002.9 in /  33958.2 hPa WSW 7.7 mph /  12.4 km/h 16.6 mph /  26.7 km/h 65 % 0.0 in /  0 mm
13:50 11.0 °F /  -11.7 °C 4.4 °F /  -15.3 °C 1002.9 in /  33958.2 hPa WSW 7.6 mph /  12.2 km/h 16.6 mph /  26.7 km/h 64 % 0.0 in /  0 mm
13:55 10.9 °F /  -11.7 °C 4.3 °F /  -15.4 °C 1002.9 in /  33958.2 hPa WSW 6.9 mph /  11.1 km/h 16.3 mph /  26.2 km/h 64 % 0.0 in /  0 mm
14:00 10.8 °F /  -11.8 °C 4.3 °F /  -15.4 °C 1002.9 in /  33958.2 hPa WSW 7.2 mph /  11.6 km/h 16.3 mph /  26.2 km/h 64 % 0.0 in /  0 mm
14:05 10.8 °F /  -11.8 °C 4.3 °F /  -15.4 °C 1002.9 in /  33958.2 hPa WSW 6.8 mph /  10.9 km/h 15.8 mph /  25.4 km/h 64 % 0.0 in /  0 mm
14:10 10.7 °F /  -11.8 °C 4.2 °F /  -15.4 °C 1002.9 in /  33958.2 hPa WSW 7.2 mph /  11.6 km/h 15.8 mph /  25.4 km/h 64 % 0.0 in /  0 mm
14:15 10.7 °F /  -11.8 °C 4.2 °F /  -15.4 °C 1002.9 in /  33958.2 hPa SW 8.5 mph /  13.7 km/h 14.0 mph /  22.5 km/h 64 % 0.0 in /  0 mm
14:20 10.7 °F /  -11.8 °C 4.2 °F /  -15.4 °C 1002.9 in /  33958.2 hPa SSW 7.9 mph /  12.7 km/h 13.7 mph /  22 km/h 64 % 0.0 in /  0 mm
14:25 10.7 °F /  -11.8 °C 4.2 °F /  -15.4 °C 1001.9 in /  33924.3 hPa SSW 7.6 mph /  12.2 km/h 20.9 mph /  33.6 km/h 64 % 0.0 in /  0 mm
14:30 10.7 °F /  -11.8 °C 4.2 °F /  -15.4 °C 1001.9 in /  33924.3 hPa SW 6.8 mph /  10.9 km/h 20.9 mph /  33.6 km/h 64 % 0.0 in /  0 mm
14:35 10.7 °F /  -11.8 °C 4.2 °F /  -15.4 °C 1001.9 in /  33924.3 hPa SW 6.1 mph /  9.8 km/h 17.2 mph /  27.7 km/h 64 % 0.0 in /  0 mm
14:40 10.7 °F /  -11.8 °C 4.2 °F /  -15.4 °C 1001.9 in /  33924.3 hPa SW 7.7 mph /  12.4 km/h 17.7 mph /  28.5 km/h 64 % 0.0 in /  0 mm
14:45 10.7 °F /  -11.8 °C 4.2 °F /  -15.4 °C 1001.9 in /  33924.3 hPa SW 10.0 mph /  16.1 km/h 24.8 mph /  39.9 km/h 64 % 0.0 in /  0 mm
14:50 10.8 °F /  -11.8 °C 4.1 °F /  -15.5 °C 1001.9 in /  33924.3 hPa SW 11.1 mph /  17.9 km/h 24.8 mph /  39.9 km/h 63 % 0.0 in /  0 mm
14:55 10.8 °F /  -11.8 °C 4.1 °F /  -15.5 °C 1001.9 in /  33924.3 hPa SW 10.6 mph /  17.1 km/h 21.2 mph /  34.1 km/h 63 % 0.0 in /  0 mm
15:00 10.8 °F /  -11.8 °C 3.8 °F /  -15.7 °C 1001.9 in /  33924.3 hPa SW 8.7 mph /  14 km/h 20.6 mph /  33.2 km/h 62 % 0.0 in /  0 mm
15:05 10.8 °F /  -11.8 °C 3.8 °F /  -15.7 °C 1001.9 in /  33924.3 hPa SW 9.2 mph /  14.8 km/h 19.8 mph /  31.9 km/h 62 % 0.0 in /  0 mm
15:10 10.9 °F /  -11.7 °C 3.7 °F /  -15.7 °C 1001.9 in /  33924.3 hPa SW 9.5 mph /  15.3 km/h 19.8 mph /  31.9 km/h 61 % 0.0 in /  0 mm
15:15 10.9 °F /  -11.7 °C 3.7 °F /  -15.7 °C 1001.9 in /  33924.3 hPa SSW 9.5 mph /  15.3 km/h 19.8 mph /  31.9 km/h 61 % 0.0 in /  0 mm
15:20 10.9 °F /  -11.7 °C 3.4 °F /  -15.9 °C 1001.9 in /  33924.3 hPa SSW 10.0 mph /  16.1 km/h 19.8 mph /  31.9 km/h 60 % 0.0 in /  0 mm
15:25 10.9 °F /  -11.7 °C 3.2 °F /  -16 °C 1002.9 in /  33958.2 hPa SW 10.5 mph /  16.9 km/h 25.9 mph /  41.7 km/h 59 % 0.0 in /  0 mm
15:30 10.9 °F /  -11.7 °C 3.2 °F /  -16 °C 1002.9 in /  33958.2 hPa SW 12.1 mph /  19.5 km/h 25.9 mph /  41.7 km/h 59 % 0.0 in /  0 mm
15:35 11.0 °F /  -11.7 °C 3.1 °F /  -16.1 °C 1002.9 in /  33958.2 hPa SW 10.3 mph /  16.6 km/h 19.1 mph /  30.7 km/h 58 % 0.0 in /  0 mm
15:40 11.1 °F /  -11.6 °C 2.9 °F /  -16.2 °C 1002.9 in /  33958.2 hPa WSW 8.8 mph /  14.2 km/h 16.3 mph /  26.2 km/h 57 % 0.0 in /  0 mm
15:45 11.2 °F /  -11.6 °C 3.0 °F /  -16.1 °C 1002.9 in /  33958.2 hPa SW 10.1 mph /  16.3 km/h 20.6 mph /  33.2 km/h 57 % 0.0 in /  0 mm
15:50 11.1 °F /  -11.6 °C 2.9 °F /  -16.2 °C 1002.9 in /  33958.2 hPa SW 10.5 mph /  16.9 km/h 21.2 mph /  34.1 km/h 57 % 0.0 in /  0 mm
15:55 11.1 °F /  -11.6 °C 2.7 °F /  -16.3 °C 1002.9 in /  33958.2 hPa SW 10.6 mph /  17.1 km/h 21.2 mph /  34.1 km/h 56 % 0.0 in /  0 mm
16:00 11.0 °F /  -11.7 °C 2.6 °F /  -16.3 °C 1002.9 in /  33958.2 hPa SW 10.5 mph /  16.9 km/h 19.5 mph /  31.4 km/h 56 % 0.0 in /  0 mm
16:05 11.0 °F /  -11.7 °C 2.3 °F /  -16.5 °C 1002.9 in /  33958.2 hPa SW 11.4 mph /  18.3 km/h 23.0 mph /  37 km/h 55 % 0.0 in /  0 mm
16:10 11.0 °F /  -11.7 °C 2.3 °F /  -16.5 °C 1003.9 in /  33992.1 hPa SW 11.3 mph /  18.2 km/h 23.0 mph /  37 km/h 55 % 0.0 in /  0 mm
16:15 10.9 °F /  -11.7 °C 2.2 °F /  -16.6 °C 1003.9 in /  33992.1 hPa SW 9.5 mph /  15.3 km/h 14.0 mph /  22.5 km/h 55 % 0.0 in /  0 mm
16:20 10.9 °F /  -11.7 °C 2.2 °F /  -16.6 °C 1003.9 in /  33992.1 hPa SW 8.8 mph /  14.2 km/h 16.9 mph /  27.2 km/h 55 % 0.0 in /  0 mm
16:25 10.8 °F /  -11.8 °C 2.1 °F /  -16.6 °C 1002.9 in /  33958.2 hPa SW 7.2 mph /  11.6 km/h 16.9 mph /  27.2 km/h 55 % 0.0 in /  0 mm
16:30 10.7 °F /  -11.8 °C 2.0 °F /  -16.7 °C 1002.9 in /  33958.2 hPa SSW 6.1 mph /  9.8 km/h 16.6 mph /  26.7 km/h 55 % 0.0 in /  0 mm
16:35 10.6 °F /  -11.9 °C 1.9 °F /  -16.7 °C 1002.9 in /  33958.2 hPa SW 7.4 mph /  11.9 km/h 16.6 mph /  26.7 km/h 55 % 0.0 in /  0 mm
16:40 10.6 °F /  -11.9 °C 1.9 °F /  -16.7 °C 1002.9 in /  33958.2 hPa SW 8.0 mph /  12.9 km/h 15.4 mph /  24.8 km/h 55 % 0.0 in /  0 mm
16:45 10.5 °F /  -11.9 °C 2.1 °F /  -16.6 °C 1002.9 in /  33958.2 hPa SW 6.9 mph /  11.1 km/h 13.0 mph /  20.9 km/h 56 % 0.0 in /  0 mm
16:50 10.5 °F /  -11.9 °C 2.1 °F /  -16.6 °C 1002.9 in /  33958.2 hPa WSW 6.0 mph /  9.7 km/h 13.0 mph /  20.9 km/h 56 % 0.0 in /  0 mm
16:55 10.4 °F /  -12 °C 2.0 °F /  -16.7 °C 1002.9 in /  33958.2 hPa WSW 4.8 mph /  7.7 km/h 11.6 mph /  18.7 km/h 56 % 0.0 in /  0 mm
17:00 10.3 °F /  -12.1 °C 1.9 °F /  -16.7 °C 1002.9 in /  33958.2 hPa SW 4.0 mph /  6.4 km/h 9.3 mph /  15 km/h 56 % 0.0 in /  0 mm
17:05 10.3 °F /  -12.1 °C 1.9 °F /  -16.7 °C 1002.9 in /  33958.2 hPa SW 5.8 mph /  9.3 km/h 10.1 mph /  16.3 km/h 56 % 0.0 in /  0 mm
17:10 10.2 °F /  -12.1 °C 2.1 °F /  -16.6 °C 1002.9 in /  33958.2 hPa SW 5.6 mph /  9 km/h 10.1 mph /  16.3 km/h 57 % 0.0 in /  0 mm
17:15 10.2 °F /  -12.1 °C 2.1 °F /  -16.6 °C 1002.9 in /  33958.2 hPa WSW 4.5 mph /  7.2 km/h 13.0 mph /  20.9 km/h 57 % 0.0 in /  0 mm
17:20 10.2 °F /  -12.1 °C 2.1 °F /  -16.6 °C 1002.9 in /  33958.2 hPa WSW 7.2 mph /  11.6 km/h 13.7 mph /  22 km/h 57 % 0.0 in /  0 mm
17:25 10.1 °F /  -12.2 °C 1.9 °F /  -16.7 °C 1003.9 in /  33992.1 hPa WSW 8.4 mph /  13.5 km/h 13.7 mph /  22 km/h 57 % 0.0 in /  0 mm
17:30 10.1 °F /  -12.2 °C 2.2 °F /  -16.6 °C 1003.9 in /  33992.1 hPa WSW 6.3 mph /  10.1 km/h 12.2 mph /  19.6 km/h 58 % 0.0 in /  0 mm
17:35 10.1 °F /  -12.2 °C 2.2 °F /  -16.6 °C 1003.9 in /  33992.1 hPa SW 6.3 mph /  10.1 km/h 13.0 mph /  20.9 km/h 58 % 0.0 in /  0 mm
17:40 10.0 °F /  -12.2 °C 2.1 °F /  -16.6 °C 1002.9 in /  33958.2 hPa SW 7.1 mph /  11.4 km/h 13.0 mph /  20.9 km/h 58 % 0.0 in /  0 mm
17:46 9.9 °F /  -12.3 °C 2.3 °F /  -16.5 °C 1002.9 in /  33958.2 hPa SW 5.3 mph /  8.5 km/h 10.5 mph /  16.9 km/h 59 % 0.0 in /  0 mm
17:51 9.9 °F /  -12.3 °C 2.3 °F /  -16.5 °C 1002.9 in /  33958.2 hPa SW 4.7 mph /  7.6 km/h 9.0 mph /  14.5 km/h 59 % 0.0 in /  0 mm
17:56 9.9 °F /  -12.3 °C 2.3 °F /  -16.5 °C 1002.9 in /  33958.2 hPa WSW 5.1 mph /  8.2 km/h 9.0 mph /  14.5 km/h 59 % 0.0 in /  0 mm
18:01 9.8 °F /  -12.3 °C 2.4 °F /  -16.4 °C 1002.9 in /  33958.2 hPa WSW 4.5 mph /  7.2 km/h 7.9 mph /  12.7 km/h 60 % 0.0 in /  0 mm
18:06 9.8 °F /  -12.3 °C 2.4 °F /  -16.4 °C 1002.9 in /  33958.2 hPa WSW 4.0 mph /  6.4 km/h 7.9 mph /  12.7 km/h 60 % 0.0 in /  0 mm
18:11 9.7 °F /  -12.4 °C 2.3 °F /  -16.5 °C 1003.9 in /  33992.1 hPa WSW 3.2 mph /  5.1 km/h 6.9 mph /  11.1 km/h 60 % 0.0 in /  0 mm
18:16 9.7 °F /  -12.4 °C 2.6 °F /  -16.3 °C 1003.9 in /  33992.1 hPa WSW 4.3 mph /  6.9 km/h 10.8 mph /  17.4 km/h 61 % 0.0 in /  0 mm
18:21 9.6 °F /  -12.4 °C 2.4 °F /  -16.4 °C 1003.9 in /  33992.1 hPa SW 5.1 mph /  8.2 km/h 10.8 mph /  17.4 km/h 61 % 0.0 in /  0 mm
18:26 9.6 °F /  -12.4 °C 2.4 °F /  -16.4 °C 1003.9 in /  33992.1 hPa WSW 5.1 mph /  8.2 km/h 13.7 mph /  22 km/h 61 % 0.0 in /  0 mm
18:31 9.6 °F /  -12.4 °C 2.4 °F /  -16.4 °C 1003.9 in /  33992.1 hPa SW 5.8 mph /  9.3 km/h 13.7 mph /  22 km/h 61 % 0.0 in /  0 mm
18:36 9.6 °F /  -12.4 °C 2.4 °F /  -16.4 °C 1003.9 in /  33992.1 hPa SW 4.2 mph /  6.8 km/h 7.9 mph /  12.7 km/h 61 % 0.0 in /  0 mm
18:41 9.6 °F /  -12.4 °C 2.7 °F /  -16.3 °C 1002.9 in /  33958.2 hPa SW 4.3 mph /  6.9 km/h 9.7 mph /  15.6 km/h 62 % 0.0 in /  0 mm
18:46 9.6 °F /  -12.4 °C 2.7 °F /  -16.3 °C 1002.9 in /  33958.2 hPa SW 3.7 mph /  6 km/h 9.7 mph /  15.6 km/h 62 % 0.0 in /  0 mm
18:51 9.5 °F /  -12.5 °C 2.6 °F /  -16.3 °C 1002.9 in /  33958.2 hPa SW 1.9 mph /  3.1 km/h 7.6 mph /  12.2 km/h 62 % 0.0 in /  0 mm
18:56 9.5 °F /  -12.5 °C 2.6 °F /  -16.3 °C 1002.9 in /  33958.2 hPa WSW 2.6 mph /  4.2 km/h 7.6 mph /  12.2 km/h 62 % 0.0 in /  0 mm
19:01 9.5 °F /  -12.5 °C 2.6 °F /  -16.3 °C 1002.9 in /  33958.2 hPa WSW 2.3 mph /  3.7 km/h 4.3 mph /  6.9 km/h 62 % 0.0 in /  0 mm
19:06 9.4 °F /  -12.6 °C 2.5 °F /  -16.4 °C 1002.9 in /  33958.2 hPa WSW 1.4 mph /  2.3 km/h 4.3 mph /  6.9 km/h 62 % 0.0 in /  0 mm
19:11 9.4 °F /  -12.6 °C 2.5 °F /  -16.4 °C 1002.9 in /  33958.2 hPa West 1.4 mph /  2.3 km/h 4.7 mph /  7.6 km/h 62 % 0.0 in /  0 mm
19:16 9.4 °F /  -12.6 °C 2.5 °F /  -16.4 °C 1002.9 in /  33958.2 hPa West 2.7 mph /  4.3 km/h 7.9 mph /  12.7 km/h 62 % 0.0 in /  0 mm
19:21 9.4 °F /  -12.6 °C 2.5 °F /  -16.4 °C 1002.9 in /  33958.2 hPa West 2.3 mph /  3.7 km/h 7.9 mph /  12.7 km/h 62 % 0.0 in /  0 mm
19:26 9.3 °F /  -12.6 °C 2.4 °F /  -16.4 °C 1002.9 in /  33958.2 hPa WSW 0.3 mph /  0.5 km/h 2.6 mph /  4.2 km/h 62 % 0.0 in /  0 mm
19:31 9.2 °F /  -12.7 °C 2.5 °F /  -16.4 °C 1002.9 in /  33958.2 hPa WNW 0.6 mph /  1 km/h 4.3 mph /  6.9 km/h 63 % 0.0 in /  0 mm
19:42 9.2 °F /  -12.7 °C 2.5 °F /  -16.4 °C 1002.9 in /  33958.2 hPa North 0.5 mph /  0.8 km/h   63 % 0.0 in /  0 mm
19:47 8.9 °F /  -12.8 °C 2.4 °F /  -16.4 °C 1002.9 in /  33958.2 hPa West 1.4 mph /  2.3 km/h 4.0 mph /  6.4 km/h 64 % 0.0 in /  0 mm
19:52 8.8 °F /  -12.9 °C 2.3 °F /  -16.5 °C 1002.9 in /  33958.2 hPa West 1.0 mph /  1.6 km/h 4.0 mph /  6.4 km/h 64 % 0.0 in /  0 mm
19:57 8.6 °F /  -13 °C 2.2 °F /  -16.6 °C 1001.9 in /  33924.3 hPa Calm   1.4 mph /  2.3 km/h 64 % 0.0 in /  0 mm
20:02 8.5 °F /  -13.1 °C 2.3 °F /  -16.5 °C 1001.9 in /  33924.3 hPa Calm     65 % 0.0 in /  0 mm
20:07 8.4 °F /  -13.1 °C 2.2 °F /  -16.6 °C 1001.9 in /  33924.3 hPa Calm     65 % 0.0 in /  0 mm
20:12 8.2 °F /  -13.2 °C 2.2 °F /  -16.6 °C 1002.9 in /  33958.2 hPa Calm     66 % 0.0 in /  0 mm
20:17 8.2 °F /  -13.2 °C 2.2 °F /  -16.6 °C 1002.9 in /  33958.2 hPa Calm     66 % 0.0 in /  0 mm
20:22 8.0 °F /  -13.3 °C 2.2 °F /  -16.6 °C 1002.9 in /  33958.2 hPa Calm     67 % 0.0 in /  0 mm
20:27 7.9 °F /  -13.4 °C 2.3 °F /  -16.5 °C 1002.9 in /  33958.2 hPa WNW 0.2 mph /  0.3 km/h 2.6 mph /  4.2 km/h 68 % 0.0 in /  0 mm
20:32 7.9 °F /  -13.4 °C 2.3 °F /  -16.5 °C 1002.9 in /  33958.2 hPa WNW 0.2 mph /  0.3 km/h 2.6 mph /  4.2 km/h 68 % 0.0 in /  0 mm
20:37 7.9 °F /  -13.4 °C 2.3 °F /  -16.5 °C 1002.9 in /  33958.2 hPa Calm     68 % 0.0 in /  0 mm
20:42 7.7 °F /  -13.5 °C 2.4 °F /  -16.4 °C 1002.9 in /  33958.2 hPa Calm     69 % 0.0 in /  0 mm
20:47 7.7 °F /  -13.5 °C 2.4 °F /  -16.4 °C 1002.9 in /  33958.2 hPa Calm     69 % 0.0 in /  0 mm
20:52 7.6 °F /  -13.6 °C 2.5 °F /  -16.4 °C 1002.9 in /  33958.2 hPa Calm   2.6 mph /  4.2 km/h 70 % 0.0 in /  0 mm
20:57 7.5 °F /  -13.6 °C 2.4 °F /  -16.4 °C 1003.9 in /  33992.1 hPa Calm   2.6 mph /  4.2 km/h 70 % 0.0 in /  0 mm
21:02 7.5 °F /  -13.6 °C 2.6 °F /  -16.3 °C 1003.9 in /  33992.1 hPa Calm     71 % 0.0 in /  0 mm
21:07 7.4 °F /  -13.7 °C 2.5 °F /  -16.4 °C 1003.9 in /  33992.1 hPa Calm     71 % 0.0 in /  0 mm
21:12 7.3 °F /  -13.7 °C 2.4 °F /  -16.4 °C 1001.9 in /  33924.3 hPa Calm     71 % 0.0 in /  0 mm
21:17 7.3 °F /  -13.7 °C 2.6 °F /  -16.3 °C 1001.9 in /  33924.3 hPa Calm     72 % 0.3 in /  7.62 mm
21:22 7.2 °F /  -13.8 °C 2.7 °F /  -16.3 °C 1001.9 in /  33924.3 hPa Calm     73 % 0.3 in /  7.62 mm
21:27 7.2 °F /  -13.8 °C 2.7 °F /  -16.3 °C 1002.9 in /  33958.2 hPa NNE 1.0 mph /  1.6 km/h 6.1 mph /  9.8 km/h 73 % 0.3 in /  7.62 mm
21:32 7.1 °F /  -13.8 °C 2.8 °F /  -16.2 °C 1002.9 in /  33958.2 hPa West 2.6 mph /  4.2 km/h 6.9 mph /  11.1 km/h 74 % 0.3 in /  7.62 mm
21:37 7.1 °F /  -13.8 °C 2.9 °F /  -16.2 °C 1002.9 in /  33958.2 hPa West 3.2 mph /  5.1 km/h 6.9 mph /  11.1 km/h 75 % 0.3 in /  7.62 mm
21:42 7.1 °F /  -13.8 °C 2.9 °F /  -16.2 °C 1002.9 in /  33958.2 hPa West 1.8 mph /  2.9 km/h 6.9 mph /  11.1 km/h 75 % 0.3 in /  7.62 mm
21:47 7.1 °F /  -13.8 °C 3.2 °F /  -16 °C 1002.9 in /  33958.2 hPa West 1.4 mph /  2.3 km/h 5.8 mph /  9.3 km/h 76 % 0.3 in /  7.62 mm
21:52 7.1 °F /  -13.8 °C 3.2 °F /  -16 °C 1002.9 in /  33958.2 hPa WSW 1.3 mph /  2.1 km/h 5.8 mph /  9.3 km/h 76 % 0.3 in /  7.62 mm
21:57 7.1 °F /  -13.8 °C 3.3 °F /  -15.9 °C 1002.9 in /  33958.2 hPa SSW 0.6 mph /  1 km/h 3.5 mph /  5.6 km/h 77 % 0.5 in /  12.7 mm
22:02 7.1 °F /  -13.8 °C 3.5 °F /  -15.8 °C 1002.9 in /  33958.2 hPa South 0.5 mph /  0.8 km/h 3.5 mph /  5.6 km/h 78 % 0.5 in /  12.7 mm
22:07 7.1 °F /  -13.8 °C 3.5 °F /  -15.8 °C 1002.9 in /  33958.2 hPa Calm     78 % 0.8 in /  20.32 mm
22:12 7.1 °F /  -13.8 °C 3.7 °F /  -15.7 °C 1002.9 in /  33958.2 hPa Calm     79 % 1.0 in /  25.4 mm
22:17 7.1 °F /  -13.8 °C 3.7 °F /  -15.7 °C 1002.9 in /  33958.2 hPa NNW 0.2 mph /  0.3 km/h 3.5 mph /  5.6 km/h 79 % 1.0 in /  25.4 mm
22:22 7.1 °F /  -13.8 °C 3.9 °F /  -15.6 °C 1002.9 in /  33958.2 hPa NNW 0.2 mph /  0.3 km/h 3.5 mph /  5.6 km/h 80 % 1.0 in /  25.4 mm
22:27 7.1 °F /  -13.8 °C 4.1 °F /  -15.5 °C 1002.9 in /  33958.2 hPa Calm     81 % 1.0 in /  25.4 mm
22:32 7.1 °F /  -13.8 °C 4.1 °F /  -15.5 °C 1002.9 in /  33958.2 hPa Calm   2.1 mph /  3.4 km/h 81 % 1.3 in /  33.02 mm
22:37 7.1 °F /  -13.8 °C 4.2 °F /  -15.4 °C 1002.9 in /  33958.2 hPa Calm   2.1 mph /  3.4 km/h 82 % 1.3 in /  33.02 mm
22:42 7.1 °F /  -13.8 °C 4.2 °F /  -15.4 °C 1001.9 in /  33924.3 hPa Calm     82 % 1.3 in /  33.02 mm
22:47 7.1 °F /  -13.8 °C 4.4 °F /  -15.3 °C 1001.9 in /  33924.3 hPa Calm     83 % 1.3 in /  33.02 mm
22:52 7.1 °F /  -13.8 °C 4.4 °F /  -15.3 °C 1001.9 in /  33924.3 hPa Calm     83 % 1.3 in /  33.02 mm
22:57 7.1 °F /  -13.8 °C 4.4 °F /  -15.3 °C 1002.9 in /  33958.2 hPa Calm     83 % 1.3 in /  33.02 mm
23:02 7.0 °F /  -13.9 °C 4.5 °F /  -15.3 °C 1002.9 in /  33958.2 hPa Calm     84 % 1.3 in /  33.02 mm
23:07 7.0 °F /  -13.9 °C 4.5 °F /  -15.3 °C 1002.9 in /  33958.2 hPa Calm     84 % 1.3 in /  33.02 mm
23:12 7.0 °F /  -13.9 °C 4.5 °F /  -15.3 °C 1002.9 in /  33958.2 hPa Calm     84 % 1.0 in /  25.4 mm
23:17 7.0 °F /  -13.9 °C 4.5 °F /  -15.3 °C 1002.9 in /  33958.2 hPa Calm   2.6 mph /  4.2 km/h 84 % 1.0 in /  25.4 mm
23:18 7.0 °F /  -13.9 °C 4.5 °F /  -15.3 °C 1002.9 in /  33958.2 hPa WNW 0.2 mph /  0.3 km/h 2.6 mph /  4.2 km/h 84 % 1.0 in /  25.4 mm
23:23 7.0 °F /  -13.9 °C 4.7 °F /  -15.2 °C 1002.9 in /  33958.2 hPa WNW 0.5 mph /  0.8 km/h 3.5 mph /  5.6 km/h 85 % 1.0 in /  25.4 mm
23:28 7.0 °F /  -13.9 °C 4.7 °F /  -15.2 °C 1002.9 in /  33958.2 hPa WNW 0.3 mph /  0.5 km/h 3.5 mph /  5.6 km/h 85 % 1.0 in /  25.4 mm
23:33 7.0 °F /  -13.9 °C 4.7 °F /  -15.2 °C 1002.9 in /  33958.2 hPa SE 0.5 mph /  0.8 km/h 4.0 mph /  6.4 km/h 85 % 0.8 in /  20.32 mm
23:38 7.0 °F /  -13.9 °C 4.7 °F /  -15.2 °C 1002.9 in /  33958.2 hPa South 0.5 mph /  0.8 km/h 4.0 mph /  6.4 km/h 85 % 0.8 in /  20.32 mm
23:43 7.0 °F /  -13.9 °C 4.8 °F /  -15.1 °C 1001.9 in /  33924.3 hPa SW 1.1 mph /  1.8 km/h 4.0 mph /  6.4 km/h 86 % 0.8 in /  20.32 mm
23:48 6.9 °F /  -13.9 °C 4.7 °F /  -15.2 °C 1001.9 in /  33924.3 hPa WSW 1.6 mph /  2.6 km/h 4.3 mph /  6.9 km/h 86 % 0.8 in /  20.32 mm
23:53 6.9 °F /  -13.9 °C 4.7 °F /  -15.2 °C 1001.9 in /  33924.3 hPa West 0.6 mph /  1 km/h 4.3 mph /  6.9 km/h 86 % 0.8 in /  20.32 mm
23:58 6.9 °F /  -13.9 °C 4.9 °F /  -15.1 °C 1001.9 in /  33924.3 hPa Calm     87 % 0.5 in /  12.7 mm
Vremenska postaja Senovo
Podatki zbrani iz Weather Underground - 3 mb

Script developed by  Jim McMurry - jmcmurry@mwt.net Adapted for the template by  Wim van der Kuil - Leuven-Template.eu

Vremenski podatki so objavljeni na:

European Weather Network

WeatherCloud

Weather Underground

AWEKAS

HAMweather, WeatherForYou, PWS Weather

MapView

Geostik

Slovenia weather network

Oprema, ki se uporablja:

Vremenski program
Cumulus

Vremenski server
Asus

Cumulus

Asus